createdAt,value
2022-09-16T00:01:59.996Z,7.08
2022-09-16T00:07:04.955Z,7.04
2022-09-16T00:12:10.069Z,6.95
2022-09-16T00:17:14.114Z,6.96
2022-09-16T00:22:19.801Z,6.98
2022-09-16T00:27:23.938Z,6.95
2022-09-16T00:32:27.306Z,7.00
2022-09-16T00:37:34.964Z,7.27
2022-09-16T00:42:39.794Z,7.49
2022-09-16T00:47:45.313Z,7.72
2022-09-16T00:52:50.992Z,7.86
2022-09-16T00:57:57.248Z,7.81
2022-09-16T01:03:00.760Z,7.95
2022-09-16T01:08:05.699Z,8.15
2022-09-16T01:13:12.839Z,8.19
2022-09-16T01:18:23.565Z,8.07
2022-09-16T01:24:00.815Z,7.98
2022-09-16T01:29:39.949Z,7.88
2022-09-16T01:34:52.047Z,7.73
2022-09-16T01:40:09.015Z,7.69
2022-09-16T01:45:18.680Z,7.56
2022-09-16T01:50:31.238Z,7.54
2022-09-16T01:55:37.899Z,7.51
2022-09-16T02:00:44.180Z,7.37
2022-09-16T02:05:53.777Z,7.47
2022-09-16T02:11:00.790Z,7.61
2022-09-16T02:16:11.319Z,7.81
2022-09-16T02:21:17.939Z,8.03
2022-09-16T02:26:26.098Z,8.24
2022-09-16T02:31:35.243Z,8.52
2022-09-16T02:36:41.906Z,8.65
2022-09-16T02:41:45.386Z,8.87
2022-09-16T02:46:57.831Z,9.12
2022-09-16T02:52:17.613Z,9.25
2022-09-16T02:57:21.536Z,9.44
2022-09-16T03:02:25.052Z,9.50
2022-09-16T03:07:29.939Z,9.63
2022-09-16T03:12:42.421Z,9.78
2022-09-16T03:18:23.196Z,9.83
2022-09-16T03:23:44.972Z,9.95
2022-09-16T03:28:59.105Z,9.98
2022-09-16T03:34:07.602Z,10.07
2022-09-16T03:39:13.374Z,10.25
2022-09-16T03:44:16.785Z,10.25
2022-09-16T03:49:20.105Z,10.32
2022-09-16T03:54:25.427Z,10.46
2022-09-16T03:59:29.163Z,10.58
2022-09-16T04:04:32.528Z,10.63
2022-09-16T04:09:38.577Z,10.72
2022-09-16T04:14:42.007Z,10.76
2022-09-16T04:19:45.481Z,10.86
2022-09-16T04:24:50.172Z,11.01
2022-09-16T04:29:53.498Z,10.96
2022-09-16T04:34:56.920Z,11.06
2022-09-16T04:40:04.719Z,11.02
2022-09-16T04:45:09.629Z,11.07
2022-09-16T04:50:12.990Z,11.09
2022-09-16T04:55:18.135Z,11.28
2022-09-16T05:00:21.761Z,11.24
2022-09-16T05:05:25.162Z,11.37
2022-09-16T05:10:29.877Z,11.40
2022-09-16T05:15:35.383Z,11.50
2022-09-16T05:20:38.979Z,11.52
2022-09-16T05:25:43.663Z,11.58
2022-09-16T05:30:47.013Z,11.71
2022-09-16T05:35:50.430Z,11.65
2022-09-16T05:40:59.746Z,11.65
2022-09-16T05:46:03.855Z,11.98
2022-09-16T05:51:08.230Z,12.13
2022-09-16T05:56:14.972Z,12.16
2022-09-16T06:01:20.774Z,12.16
2022-09-16T06:06:26.181Z,12.36
2022-09-16T06:11:31.017Z,12.47
2022-09-16T06:16:34.207Z,12.51
2022-09-16T06:21:37.897Z,12.60
2022-09-16T06:26:44.632Z,12.84
2022-09-16T06:31:48.059Z,12.97
2022-09-16T06:36:51.396Z,13.16
2022-09-16T06:41:56.133Z,13.11
2022-09-16T06:46:59.223Z,13.16
2022-09-16T06:52:02.684Z,13.40
2022-09-16T06:57:11.902Z,13.80
2022-09-16T07:02:16.730Z,14.30
2022-09-16T07:07:20.179Z,14.53
2022-09-16T07:12:24.948Z,14.69
2022-09-16T07:17:28.615Z,14.77
2022-09-16T07:22:33.092Z,14.82
2022-09-16T07:27:37.944Z,14.89
2022-09-16T07:32:41.275Z,15.15
2022-09-16T07:37:44.595Z,15.67
2022-09-16T07:42:49.330Z,16.56
2022-09-16T07:47:52.765Z,17.13
2022-09-16T07:52:56.234Z,17.02
2022-09-16T07:58:01.010Z,17.30
2022-09-16T08:03:06.080Z,17.10
2022-09-16T08:08:09.712Z,17.36
2022-09-16T08:13:14.415Z,18.04
2022-09-16T08:18:17.948Z,17.66
2022-09-16T08:23:21.394Z,17.71
2022-09-16T08:28:27.948Z,17.93
2022-09-16T08:33:35.864Z,18.22
2022-09-16T08:38:39.307Z,17.98
2022-09-16T08:43:48.823Z,17.90
2022-09-16T08:49:04.832Z,17.99
2022-09-16T08:54:13.841Z,18.55
2022-09-16T08:59:23.186Z,18.71
2022-09-16T09:04:26.784Z,18.56
2022-09-16T09:09:48.479Z,18.30
2022-09-16T09:15:08.367Z,18.61
2022-09-16T09:20:23.926Z,18.67
2022-09-16T09:25:35.370Z,18.24
2022-09-16T09:30:45.675Z,17.75
2022-09-16T09:35:59.733Z,17.56
2022-09-16T09:41:10.933Z,17.65
2022-09-16T09:46:22.207Z,17.82
2022-09-16T09:51:31.219Z,17.80
2022-09-16T09:56:37.878Z,17.57
2022-09-16T10:01:43.908Z,17.50
2022-09-16T10:06:47.611Z,17.59
2022-09-16T10:11:55.198Z,17.64
2022-09-16T10:17:03.000Z,17.63
2022-09-16T10:22:12.128Z,17.83
2022-09-16T10:27:25.667Z,17.85
2022-09-16T10:32:30.821Z,17.95
2022-09-16T10:37:34.193Z,17.87
2022-09-16T10:42:37.643Z,17.84
2022-09-16T10:47:42.742Z,17.55
2022-09-16T10:52:48.138Z,17.44
2022-09-16T10:57:52.194Z,17.09
2022-09-16T11:03:37.491Z,16.30
2022-09-16T11:08:54.899Z,16.14
2022-09-16T11:14:06.739Z,15.83
2022-09-16T11:19:16.494Z,15.68
2022-09-16T11:24:36.468Z,15.51
2022-09-16T11:29:52.090Z,15.22
2022-09-16T11:35:17.583Z,14.93
2022-09-16T11:40:32.739Z,14.97
2022-09-16T11:45:48.431Z,15.02
2022-09-16T11:51:00.459Z,15.10
2022-09-16T11:56:09.813Z,15.12
2022-09-16T12:01:21.851Z,15.10
2022-09-16T12:06:31.767Z,14.99
2022-09-16T12:11:39.125Z,14.76
2022-09-16T12:16:48.514Z,14.95
2022-09-16T12:21:58.379Z,15.02
2022-09-16T12:27:08.337Z,15.14
2022-09-16T12:32:16.177Z,15.12
2022-09-16T12:37:38.696Z,15.28
2022-09-16T12:43:06.229Z,15.39
2022-09-16T12:48:45.779Z,15.35
2022-09-16T12:54:12.817Z,15.27
2022-09-16T12:59:47.218Z,15.11
2022-09-16T13:04:54.104Z,15.04
2022-09-16T13:10:07.162Z,15.18
2022-09-16T13:15:25.943Z,15.20
2022-09-16T13:20:34.092Z,15.00
2022-09-16T13:25:49.272Z,14.73
2022-09-16T13:30:54.669Z,14.54
2022-09-16T13:36:17.999Z,14.54
2022-09-16T13:41:35.539Z,14.57
2022-09-16T13:46:41.031Z,14.72
2022-09-16T13:51:46.480Z,14.73
2022-09-16T13:57:01.087Z,14.73
2022-09-16T14:02:14.696Z,14.62
2022-09-16T14:07:36.742Z,14.35
2022-09-16T14:12:49.450Z,14.27
2022-09-16T14:17:59.697Z,14.14
2022-09-16T14:23:05.995Z,14.09
2022-09-16T14:28:20.538Z,14.01
2022-09-16T14:33:29.537Z,13.96
2022-09-16T14:38:46.120Z,13.92
2022-09-16T14:43:51.007Z,13.67
2022-09-16T14:48:56.032Z,13.12
2022-09-16T14:54:12.268Z,13.07
2022-09-16T14:59:17.385Z,12.96
2022-09-16T15:04:28.157Z,13.00
2022-09-16T15:09:38.458Z,12.83
2022-09-16T15:14:42.019Z,12.89
2022-09-16T15:19:52.402Z,12.85
2022-09-16T15:24:59.560Z,12.69
2022-09-16T15:30:06.096Z,12.67
2022-09-16T15:35:23.702Z,12.54
2022-09-16T15:40:36.184Z,12.51
2022-09-16T15:45:40.259Z,12.42
2022-09-16T15:50:48.660Z,12.44
2022-09-16T15:56:02.249Z,12.54
2022-09-16T16:01:10.668Z,12.52
2022-09-16T16:06:16.047Z,12.59
2022-09-16T16:11:21.336Z,12.61
2022-09-16T16:16:26.505Z,12.54
2022-09-16T16:21:31.745Z,12.61
2022-09-16T16:26:35.850Z,12.75
2022-09-16T16:31:39.739Z,12.73
2022-09-16T16:36:45.001Z,12.79
2022-09-16T16:41:48.633Z,12.78
2022-09-16T16:46:53.176Z,12.89
2022-09-16T16:51:59.005Z,13.07
2022-09-16T16:57:04.041Z,13.22
2022-09-16T17:02:07.924Z,13.29
2022-09-16T17:07:28.881Z,13.44
2022-09-16T17:12:33.018Z,13.38
2022-09-16T17:17:36.958Z,13.40
2022-09-16T17:22:42.899Z,13.50
2022-09-16T17:27:46.806Z,13.64
2022-09-16T17:32:50.569Z,13.66
2022-09-16T17:37:55.647Z,13.54
2022-09-16T17:42:59.762Z,13.78
2022-09-16T17:48:03.844Z,13.67
2022-09-16T17:53:09.419Z,13.59
2022-09-16T17:58:12.940Z,13.47
2022-09-16T18:03:16.677Z,13.36
2022-09-16T18:08:22.326Z,13.25
2022-09-16T18:13:26.087Z,13.07
2022-09-16T18:18:31.815Z,13.12
2022-09-16T18:23:37.554Z,13.22
2022-09-16T18:29:07.966Z,13.20
2022-09-16T18:34:07.309Z,13.18
2022-09-16T18:39:14.935Z,13.14
2022-09-16T18:44:20.773Z,12.98
2022-09-16T18:49:26.531Z,12.89
2022-09-16T18:54:33.225Z,12.89
2022-09-16T18:59:40.257Z,12.92
2022-09-16T19:04:44.896Z,13.05
2022-09-16T19:09:49.747Z,13.20
2022-09-16T19:14:56.207Z,13.16
2022-09-16T19:20:00.747Z,13.09
2022-09-16T19:25:05.659Z,13.03
2022-09-16T19:30:09.923Z,12.74
2022-09-16T19:35:13.655Z,12.54
2022-09-16T19:40:18.966Z,12.64
2022-09-16T19:45:27.232Z,12.58
2022-09-16T19:50:31.167Z,12.67
2022-09-16T19:55:35.903Z,12.53
2022-09-16T20:00:55.303Z,12.35
2022-09-16T20:06:03.242Z,12.26
2022-09-16T20:11:10.630Z,12.16
2022-09-16T20:16:14.199Z,12.01
2022-09-16T20:21:20.029Z,11.93
2022-09-16T20:26:24.987Z,11.85
2022-09-16T20:31:31.203Z,11.79
2022-09-16T20:36:38.358Z,11.69
2022-09-16T20:41:45.753Z,11.55
2022-09-16T20:46:50.190Z,11.47
2022-09-16T20:51:53.671Z,11.39
2022-09-16T20:56:58.402Z,11.30
2022-09-16T21:02:04.253Z,11.27
2022-09-16T21:07:07.618Z,11.37
2022-09-16T21:12:12.363Z,11.47
2022-09-16T21:17:19.886Z,11.51
2022-09-16T21:22:23.681Z,11.38
2022-09-16T21:27:28.420Z,11.41
2022-09-16T21:32:32.587Z,11.44
2022-09-16T21:37:36.022Z,11.35
2022-09-16T21:42:41.151Z,11.29
2022-09-16T21:47:44.443Z,11.26
2022-09-16T21:52:47.745Z,11.22
2022-09-16T21:57:52.410Z,11.17
2022-09-16T22:02:56.672Z,11.10
2022-09-16T22:08:00.968Z,10.89
2022-09-16T22:13:05.732Z,10.72
2022-09-16T22:18:08.773Z,10.60
2022-09-16T22:23:12.170Z,10.49
2022-09-16T22:28:16.947Z,10.39
2022-09-16T22:33:20.029Z,10.32
2022-09-16T22:38:23.380Z,10.13
2022-09-16T22:43:28.094Z,10.12
2022-09-16T22:48:31.882Z,10.02
2022-09-16T22:53:36.058Z,9.95
2022-09-16T22:58:40.797Z,9.96
2022-09-16T23:03:44.324Z,10.02
2022-09-16T23:08:47.977Z,9.99
2022-09-16T23:13:54.968Z,9.94
2022-09-16T23:19:00.109Z,9.93
2022-09-16T23:24:05.514Z,10.14
2022-09-16T23:29:12.158Z,10.22
2022-09-16T23:34:18.191Z,10.35
2022-09-16T23:39:21.744Z,9.98
2022-09-16T23:44:26.485Z,9.80
2022-09-16T23:49:29.570Z,9.75
2022-09-16T23:54:32.884Z,9.70
2022-09-16T23:59:37.622Z,9.61
